sensor_id;sensor_type;location;lat;lon;timestamp;temperature;humidity
69324;DHT22;56470;47.350;8.718;2022-10-17T00:00:47;15.95;76.31
69324;DHT22;56470;47.350;8.718;2022-10-17T00:03:13;15.92;76.33
69324;DHT22;56470;47.350;8.718;2022-10-17T00:05:40;15.92;76.29
69324;DHT22;56470;47.350;8.718;2022-10-17T00:08:06;15.94;76.26
69324;DHT22;56470;47.350;8.718;2022-10-17T00:10:31;16.02;76.29
69324;DHT22;56470;47.350;8.718;2022-10-17T00:12:56;16.05;76.10
69324;DHT22;56470;47.350;8.718;2022-10-17T00:15:21;16.09;76.04
69324;DHT22;56470;47.350;8.718;2022-10-17T00:17:47;16.16;75.94
69324;DHT22;56470;47.350;8.718;2022-10-17T00:20:13;16.23;75.91
69324;DHT22;56470;47.350;8.718;2022-10-17T00:22:38;16.29;75.83
69324;DHT22;56470;47.350;8.718;2022-10-17T00:25:04;16.32;75.61
69324;DHT22;56470;47.350;8.718;2022-10-17T00:27:30;16.33;75.62
69324;DHT22;56470;47.350;8.718;2022-10-17T00:29:58;16.34;75.56
69324;DHT22;56470;47.350;8.718;2022-10-17T00:32:23;16.39;75.44
69324;DHT22;56470;47.350;8.718;2022-10-17T00:34:48;16.40;75.18
69324;DHT22;56470;47.350;8.718;2022-10-17T00:37:14;16.39;75.16
69324;DHT22;56470;47.350;8.718;2022-10-17T00:39:39;16.37;75.03
69324;DHT22;56470;47.350;8.718;2022-10-17T00:42:05;16.36;75.09
69324;DHT22;56470;47.350;8.718;2022-10-17T00:46:56;16.39;75.04
69324;DHT22;56470;47.350;8.718;2022-10-17T00:49:24;16.39;74.89
69324;DHT22;56470;47.350;8.718;2022-10-17T00:51:59;16.37;74.55
69324;DHT22;56470;47.350;8.718;2022-10-17T00:54:32;16.37;74.63
69324;DHT22;56470;47.350;8.718;2022-10-17T00:56:58;16.34;74.59
69324;DHT22;56470;47.350;8.718;2022-10-17T00:59:24;16.34;74.62
69324;DHT22;56470;47.350;8.718;2022-10-17T01:01:55;16.32;74.65
69324;DHT22;56470;47.350;8.718;2022-10-17T01:04:24;16.25;74.84
69324;DHT22;56470;47.350;8.718;2022-10-17T01:06:49;16.25;74.79
69324;DHT22;56470;47.350;8.718;2022-10-17T01:09:14;16.27;74.79
69324;DHT22;56470;47.350;8.718;2022-10-17T01:14:30;16.27;74.35
69324;DHT22;56470;47.350;8.718;2022-10-17T01:17:10;16.25;74.49
69324;DHT22;56470;47.350;8.718;2022-10-17T01:22:42;16.12;74.14
69324;DHT22;56470;47.350;8.718;2022-10-17T01:25:18;16.12;74.29
69324;DHT22;56470;47.350;8.718;2022-10-17T01:28:13;16.06;74.11
69324;DHT22;56470;47.350;8.718;2022-10-17T01:30:46;16.02;74.54
69324;DHT22;56470;47.350;8.718;2022-10-17T01:33:19;16.02;74.55
69324;DHT22;56470;47.350;8.718;2022-10-17T01:35:55;16.02;74.38
69324;DHT22;56470;47.350;8.718;2022-10-17T01:38:29;16.05;74.36
69324;DHT22;56470;47.350;8.718;2022-10-17T01:41:00;16.01;74.19
69324;DHT22;56470;47.350;8.718;2022-10-17T01:44:04;15.92;73.88
69324;DHT22;56470;47.350;8.718;2022-10-17T01:46:38;15.90;74.13
69324;DHT22;56470;47.350;8.718;2022-10-17T01:49:06;15.85;74.16
69324;DHT22;56470;47.350;8.718;2022-10-17T01:51:37;15.80;74.18
69324;DHT22;56470;47.350;8.718;2022-10-17T01:54:15;15.74;74.22
69324;DHT22;56470;47.350;8.718;2022-10-17T01:56:43;15.75;74.44
69324;DHT22;56470;47.350;8.718;2022-10-17T01:59:14;15.75;74.28
69324;DHT22;56470;47.350;8.718;2022-10-17T02:01:41;15.75;74.42
69324;DHT22;56470;47.350;8.718;2022-10-17T02:04:09;15.73;74.21
69324;DHT22;56470;47.350;8.718;2022-10-17T02:06:36;15.73;74.09
69324;DHT22;56470;47.350;8.718;2022-10-17T02:09:18;15.71;73.72
69324;DHT22;56470;47.350;8.718;2022-10-17T02:15:42;15.54;74.03
69324;DHT22;56470;47.350;8.718;2022-10-17T02:22:50;15.54;74.16
69324;DHT22;56470;47.350;8.718;2022-10-17T02:33:51;15.42;73.77
69324;DHT22;56470;47.350;8.718;2022-10-17T02:36:22;15.37;73.96
69324;DHT22;56470;47.350;8.718;2022-10-17T02:38:49;15.32;74.10
69324;DHT22;56470;47.350;8.718;2022-10-17T02:41:17;15.29;74.18
69324;DHT22;56470;47.350;8.718;2022-10-17T02:43:45;15.25;74.30
69324;DHT22;56470;47.350;8.718;2022-10-17T02:46:15;15.28;74.24
69324;DHT22;56470;47.350;8.718;2022-10-17T02:48:51;15.25;74.17
69324;DHT22;56470;47.350;8.718;2022-10-17T02:54:19;15.15;74.11
69324;DHT22;56470;47.350;8.718;2022-10-17T02:56:56;15.19;74.43
69324;DHT22;56470;47.350;8.718;2022-10-17T02:59:24;15.18;74.71
69324;DHT22;56470;47.350;8.718;2022-10-17T03:01:51;15.20;74.85
69324;DHT22;56470;47.350;8.718;2022-10-17T03:04:17;15.23;74.90
69324;DHT22;56470;47.350;8.718;2022-10-17T03:06:44;15.08;74.64
69324;DHT22;56470;47.350;8.718;2022-10-17T03:09:10;14.92;74.63
69324;DHT22;56470;47.350;8.718;2022-10-17T03:11:36;14.80;75.11
69324;DHT22;56470;47.350;8.718;2022-10-17T03:14:01;14.73;75.23
69324;DHT22;56470;47.350;8.718;2022-10-17T03:16:26;14.75;75.42
69324;DHT22;56470;47.350;8.718;2022-10-17T03:18:52;14.84;75.48
69324;DHT22;56470;47.350;8.718;2022-10-17T03:21:17;14.91;75.48
69324;DHT22;56470;47.350;8.718;2022-10-17T03:23:43;14.96;75.33
69324;DHT22;56470;47.350;8.718;2022-10-17T03:26:08;14.92;74.95
69324;DHT22;56470;47.350;8.718;2022-10-17T03:28:33;14.89;74.80
69324;DHT22;56470;47.350;8.718;2022-10-17T03:30:59;14.85;74.84
69324;DHT22;56470;47.350;8.718;2022-10-17T03:33:30;14.67;74.94
69324;DHT22;56470;47.350;8.718;2022-10-17T03:35:55;14.61;74.78
69324;DHT22;56470;47.350;8.718;2022-10-17T03:38:20;14.55;74.85
69324;DHT22;56470;47.350;8.718;2022-10-17T03:40:53;14.50;74.95
69324;DHT22;56470;47.350;8.718;2022-10-17T03:43:19;14.56;75.06
69324;DHT22;56470;47.350;8.718;2022-10-17T03:45:44;14.60;74.99
69324;DHT22;56470;47.350;8.718;2022-10-17T03:48:09;14.63;74.89
69324;DHT22;56470;47.350;8.718;2022-10-17T03:50:34;14.68;74.90
69324;DHT22;56470;47.350;8.718;2022-10-17T03:53:00;14.71;74.74
69324;DHT22;56470;47.350;8.718;2022-10-17T03:55:25;14.73;74.91
69324;DHT22;56470;47.350;8.718;2022-10-17T03:57:50;14.80;74.98
69324;DHT22;56470;47.350;8.718;2022-10-17T04:00:16;14.84;74.99
69324;DHT22;56470;47.350;8.718;2022-10-17T04:02:41;14.91;74.99
69324;DHT22;56470;47.350;8.718;2022-10-17T04:05:07;14.89;74.79
69324;DHT22;56470;47.350;8.718;2022-10-17T04:07:32;14.91;74.86
69324;DHT22;56470;47.350;8.718;2022-10-17T04:09:57;14.95;74.70
69324;DHT22;56470;47.350;8.718;2022-10-17T04:12:23;14.95;74.66
69324;DHT22;56470;47.350;8.718;2022-10-17T04:14:48;14.95;74.50
69324;DHT22;56470;47.350;8.718;2022-10-17T04:17:13;14.95;74.45
69324;DHT22;56470;47.350;8.718;2022-10-17T04:19:39;14.95;74.25
69324;DHT22;56470;47.350;8.718;2022-10-17T04:22:04;14.94;74.26
69324;DHT22;56470;47.350;8.718;2022-10-17T04:24:32;14.95;74.09
69324;DHT22;56470;47.350;8.718;2022-10-17T04:26:57;14.91;73.97
69324;DHT22;56470;47.350;8.718;2022-10-17T04:29:23;14.91;74.00
69324;DHT22;56470;47.350;8.718;2022-10-17T04:31:49;14.91;74.11
69324;DHT22;56470;47.350;8.718;2022-10-17T04:34:16;14.91;73.95
69324;DHT22;56470;47.350;8.718;2022-10-17T04:36:41;14.92;73.67
69324;DHT22;56470;47.350;8.718;2022-10-17T04:39:07;14.87;73.68
69324;DHT22;56470;47.350;8.718;2022-10-17T04:41:32;14.85;73.70
69324;DHT22;56470;47.350;8.718;2022-10-17T04:43:58;14.84;73.77
69324;DHT22;56470;47.350;8.718;2022-10-17T04:46:23;14.80;73.82
69324;DHT22;56470;47.350;8.718;2022-10-17T04:48:48;14.75;73.68
69324;DHT22;56470;47.350;8.718;2022-10-17T04:51:16;14.73;73.69
69324;DHT22;56470;47.350;8.718;2022-10-17T04:53:43;14.71;73.70
69324;DHT22;56470;47.350;8.718;2022-10-17T04:56:17;14.63;73.62
69324;DHT22;56470;47.350;8.718;2022-10-17T04:58:43;14.59;73.74
69324;DHT22;56470;47.350;8.718;2022-10-17T05:01:12;14.55;73.88
69324;DHT22;56470;47.350;8.718;2022-10-17T05:03:38;14.51;73.70
69324;DHT22;56470;47.350;8.718;2022-10-17T05:06:30;14.44;73.45
69324;DHT22;56470;47.350;8.718;2022-10-17T05:08:57;14.41;73.71
69324;DHT22;56470;47.350;8.718;2022-10-17T05:11:26;14.36;73.85
69324;DHT22;56470;47.350;8.718;2022-10-17T05:13:54;14.29;74.05
69324;DHT22;56470;47.350;8.718;2022-10-17T05:16:20;14.19;74.56
69324;DHT22;56470;47.350;8.718;2022-10-17T05:18:50;14.11;74.69
69324;DHT22;56470;47.350;8.718;2022-10-17T05:21:16;14.05;74.93
69324;DHT22;56470;47.350;8.718;2022-10-17T05:23:41;14.01;75.18
69324;DHT22;56470;47.350;8.718;2022-10-17T05:26:06;14.00;75.32
69324;DHT22;56470;47.350;8.718;2022-10-17T05:28:33;14.02;75.35
69324;DHT22;56470;47.350;8.718;2022-10-17T05:31:04;14.01;75.16
69324;DHT22;56470;47.350;8.718;2022-10-17T05:33:30;13.95;75.08
69324;DHT22;56470;47.350;8.718;2022-10-17T05:35:55;13.89;75.42
69324;DHT22;56470;47.350;8.718;2022-10-17T05:38:20;13.87;75.51
69324;DHT22;56470;47.350;8.718;2022-10-17T05:40:45;13.84;75.62
69324;DHT22;56470;47.350;8.718;2022-10-17T05:43:11;13.87;75.72
69324;DHT22;56470;47.350;8.718;2022-10-17T05:45:36;13.91;75.72
69324;DHT22;56470;47.350;8.718;2022-10-17T05:48:02;13.91;75.67
69324;DHT22;56470;47.350;8.718;2022-10-17T05:50:27;13.91;75.60
69324;DHT22;56470;47.350;8.718;2022-10-17T05:52:53;13.88;75.53
69324;DHT22;56470;47.350;8.718;2022-10-17T05:55:19;13.95;75.30
69324;DHT22;56470;47.350;8.718;2022-10-17T05:57:44;14.01;75.09
69324;DHT22;56470;47.350;8.718;2022-10-17T06:00:10;14.05;74.88
69324;DHT22;56470;47.350;8.718;2022-10-17T06:02:36;14.08;74.75
69324;DHT22;56470;47.350;8.718;2022-10-17T06:05:01;14.15;74.81
69324;DHT22;56470;47.350;8.718;2022-10-17T06:07:26;14.21;74.70
69324;DHT22;56470;47.350;8.718;2022-10-17T06:09:52;14.28;74.61
69324;DHT22;56470;47.350;8.718;2022-10-17T06:12:17;14.37;74.54
69324;DHT22;56470;47.350;8.718;2022-10-17T06:14:42;14.46;74.53
69324;DHT22;56470;47.350;8.718;2022-10-17T06:17:08;14.57;74.20
69324;DHT22;56470;47.350;8.718;2022-10-17T06:19:33;14.66;74.09
69324;DHT22;56470;47.350;8.718;2022-10-17T06:21:59;14.78;74.03
69324;DHT22;56470;47.350;8.718;2022-10-17T06:24:25;14.88;73.79
69324;DHT22;56470;47.350;8.718;2022-10-17T06:26:50;15.01;73.60
69324;DHT22;56470;47.350;8.718;2022-10-17T06:29:15;15.12;73.35
69324;DHT22;56470;47.350;8.718;2022-10-17T06:31:41;15.23;73.18
69324;DHT22;56470;47.350;8.718;2022-10-17T06:34:06;15.35;72.77
69324;DHT22;56470;47.350;8.718;2022-10-17T06:36:31;15.46;72.80
69324;DHT22;56470;47.350;8.718;2022-10-17T06:38:57;15.57;72.69
69324;DHT22;56470;47.350;8.718;2022-10-17T06:41:22;15.68;72.57
69324;DHT22;56470;47.350;8.718;2022-10-17T06:43:47;15.77;72.28
69324;DHT22;56470;47.350;8.718;2022-10-17T06:46:14;15.91;72.33
69324;DHT22;56470;47.350;8.718;2022-10-17T06:48:40;16.02;72.17
69324;DHT22;56470;47.350;8.718;2022-10-17T06:51:06;16.16;72.07
69324;DHT22;56470;47.350;8.718;2022-10-17T06:53:34;16.39;71.80
69324;DHT22;56470;47.350;8.718;2022-10-17T06:56:00;16.59;71.47
69324;DHT22;56470;47.350;8.718;2022-10-17T06:58:35;16.75;71.06
69324;DHT22;56470;47.350;8.718;2022-10-17T07:01:08;16.92;70.74
69324;DHT22;56470;47.350;8.718;2022-10-17T07:03:34;17.14;70.58
69324;DHT22;56470;47.350;8.718;2022-10-17T07:05:59;17.29;70.30
69324;DHT22;56470;47.350;8.718;2022-10-17T07:08:25;17.43;69.71
69324;DHT22;56470;47.350;8.718;2022-10-17T07:10:51;17.55;69.71
69324;DHT22;56470;47.350;8.718;2022-10-17T07:13:17;17.71;69.43
69324;DHT22;56470;47.350;8.718;2022-10-17T07:15:43;17.87;69.24
69324;DHT22;56470;47.350;8.718;2022-10-17T07:18:08;18.01;68.88
69324;DHT22;56470;47.350;8.718;2022-10-17T07:20:34;18.17;68.58
69324;DHT22;56470;47.350;8.718;2022-10-17T07:22:59;18.28;68.17
69324;DHT22;56470;47.350;8.718;2022-10-17T07:25:25;18.40;67.95
69324;DHT22;56470;47.350;8.718;2022-10-17T07:27:51;18.53;67.42
69324;DHT22;56470;47.350;8.718;2022-10-17T07:30:18;18.63;67.15
69324;DHT22;56470;47.350;8.718;2022-10-17T07:32:43;18.74;66.95
69324;DHT22;56470;47.350;8.718;2022-10-17T07:35:10;18.85;66.83
69324;DHT22;56470;47.350;8.718;2022-10-17T07:37:36;18.99;66.57
69324;DHT22;56470;47.350;8.718;2022-10-17T07:40:03;19.15;66.09
69324;DHT22;56470;47.350;8.718;2022-10-17T07:42:28;19.29;65.98
69324;DHT22;56470;47.350;8.718;2022-10-17T07:44:54;19.40;65.66
69324;DHT22;56470;47.350;8.718;2022-10-17T07:47:19;19.54;65.27
69324;DHT22;56470;47.350;8.718;2022-10-17T07:49:45;19.67;65.06
69324;DHT22;56470;47.350;8.718;2022-10-17T07:52:11;19.75;64.80
69324;DHT22;56470;47.350;8.718;2022-10-17T07:54:37;19.88;64.72
69324;DHT22;56470;47.350;8.718;2022-10-17T07:57:02;20.04;64.49
69324;DHT22;56470;47.350;8.718;2022-10-17T07:59:27;20.22;64.30
69324;DHT22;56470;47.350;8.718;2022-10-17T08:01:56;20.40;63.83
69324;DHT22;56470;47.350;8.718;2022-10-17T08:04:21;20.51;63.66
69324;DHT22;56470;47.350;8.718;2022-10-17T08:06:48;20.68;63.32
69324;DHT22;56470;47.350;8.718;2022-10-17T08:09:13;20.77;62.94
69324;DHT22;56470;47.350;8.718;2022-10-17T08:11:39;20.87;62.41
69324;DHT22;56470;47.350;8.718;2022-10-17T08:14:04;20.99;62.29
69324;DHT22;56470;47.350;8.718;2022-10-17T08:16:29;21.06;61.82
69324;DHT22;56470;47.350;8.718;2022-10-17T08:18:55;21.12;61.66
69324;DHT22;56470;47.350;8.718;2022-10-17T08:21:20;21.12;61.52
69324;DHT22;56470;47.350;8.718;2022-10-17T08:23:46;21.18;61.32
69324;DHT22;56470;47.350;8.718;2022-10-17T08:26:11;21.18;60.89
69324;DHT22;56470;47.350;8.718;2022-10-17T08:28:38;21.19;60.71
69324;DHT22;56470;47.350;8.718;2022-10-17T08:31:09;21.08;59.80
69324;DHT22;56470;47.350;8.718;2022-10-17T08:33:35;20.90;60.28
69324;DHT22;56470;47.350;8.718;2022-10-17T08:36:01;20.84;60.67
69324;DHT22;56470;47.350;8.718;2022-10-17T08:38:28;20.87;60.32
69324;DHT22;56470;47.350;8.718;2022-10-17T08:40:56;20.98;60.00
69324;DHT22;56470;47.350;8.718;2022-10-17T08:46:15;20.87;59.52
69324;DHT22;56470;47.350;8.718;2022-10-17T08:48:42;20.84;59.36
69324;DHT22;56470;47.350;8.718;2022-10-17T08:51:27;20.84;56.65
69324;DHT22;56470;47.350;8.718;2022-10-17T08:54:20;20.68;57.05
69324;DHT22;56470;47.350;8.718;2022-10-17T08:56:50;20.61;59.19
69324;DHT22;56470;47.350;8.718;2022-10-17T08:59:19;20.67;59.13
69324;DHT22;56470;47.350;8.718;2022-10-17T09:07:57;20.65;58.21
69324;DHT22;56470;47.350;8.718;2022-10-17T09:10:34;20.70;58.67
69324;DHT22;56470;47.350;8.718;2022-10-17T09:13:29;20.77;58.34
69324;DHT22;56470;47.350;8.718;2022-10-17T09:18:31;20.92;58.33
69324;DHT22;56470;47.350;8.718;2022-10-17T09:21:11;20.96;57.99
69324;DHT22;56470;47.350;8.718;2022-10-17T09:23:50;20.91;57.07
69324;DHT22;56470;47.350;8.718;2022-10-17T09:26:16;20.88;58.78
69324;DHT22;56470;47.350;8.718;2022-10-17T09:28:54;20.90;58.77
69324;DHT22;56470;47.350;8.718;2022-10-17T09:31:25;21.01;58.68
69324;DHT22;56470;47.350;8.718;2022-10-17T09:33:56;21.10;58.55
69324;DHT22;56470;47.350;8.718;2022-10-17T09:36:36;21.22;58.10
69324;DHT22;56470;47.350;8.718;2022-10-17T09:39:11;21.23;57.93
69324;DHT22;56470;47.350;8.718;2022-10-17T09:41:43;21.23;58.35
69324;DHT22;56470;47.350;8.718;2022-10-17T09:44:32;21.32;57.80
69324;DHT22;56470;47.350;8.718;2022-10-17T09:47:21;21.39;58.12
69324;DHT22;56470;47.350;8.718;2022-10-17T09:49:49;21.40;58.15
69324;DHT22;56470;47.350;8.718;2022-10-17T09:52:35;21.33;57.47
69324;DHT22;56470;47.350;8.718;2022-10-17T09:55:10;21.35;58.68
69324;DHT22;56470;47.350;8.718;2022-10-17T09:57:59;21.42;58.45
69324;DHT22;56470;47.350;8.718;2022-10-17T10:00:34;21.44;58.33
69324;DHT22;56470;47.350;8.718;2022-10-17T10:05:39;21.63;58.60
69324;DHT22;56470;47.350;8.718;2022-10-17T10:08:12;21.67;58.07
69324;DHT22;56470;47.350;8.718;2022-10-17T10:10:38;21.68;58.55
69324;DHT22;56470;47.350;8.718;2022-10-17T10:18:30;21.74;58.45
69324;DHT22;56470;47.350;8.718;2022-10-17T10:23:31;21.80;58.52
69324;DHT22;56470;47.350;8.718;2022-10-17T10:25:58;21.73;58.45
69324;DHT22;56470;47.350;8.718;2022-10-17T10:28:30;21.67;58.60
69324;DHT22;56470;47.350;8.718;2022-10-17T10:31:01;21.64;58.85
69324;DHT22;56470;47.350;8.718;2022-10-17T10:33:28;21.63;58.92
69324;DHT22;56470;47.350;8.718;2022-10-17T10:35:57;21.58;59.04
69324;DHT22;56470;47.350;8.718;2022-10-17T10:38:25;21.60;59.07
69324;DHT22;56470;47.350;8.718;2022-10-17T10:40:53;21.55;59.08
69324;DHT22;56470;47.350;8.718;2022-10-17T10:46:01;21.54;59.33
69324;DHT22;56470;47.350;8.718;2022-10-17T10:48:34;21.51;59.04
69324;DHT22;56470;47.350;8.718;2022-10-17T10:51:09;21.44;58.32
69324;DHT22;56470;47.350;8.718;2022-10-17T10:53:49;21.44;57.73
69324;DHT22;56470;47.350;8.718;2022-10-17T10:56:39;21.39;57.56
69324;DHT22;56470;47.350;8.718;2022-10-17T11:06:46;21.27;58.80
69324;DHT22;56470;47.350;8.718;2022-10-17T11:09:22;21.22;58.43
69324;DHT22;56470;47.350;8.718;2022-10-17T11:11:53;21.25;58.70
69324;DHT22;56470;47.350;8.718;2022-10-17T11:14:36;21.26;58.45
69324;DHT22;56470;47.350;8.718;2022-10-17T11:17:11;21.29;58.74
69324;DHT22;56470;47.350;8.718;2022-10-17T11:19:45;21.26;59.10
69324;DHT22;56470;47.350;8.718;2022-10-17T11:22:16;21.27;59.33
69324;DHT22;56470;47.350;8.718;2022-10-17T11:24:53;21.26;59.29
69324;DHT22;56470;47.350;8.718;2022-10-17T11:27:22;21.25;59.51
69324;DHT22;56470;47.350;8.718;2022-10-17T11:29:48;21.23;59.92
69324;DHT22;56470;47.350;8.718;2022-10-17T11:32:33;21.30;60.02
69324;DHT22;56470;47.350;8.718;2022-10-17T11:35:12;21.26;60.11
69324;DHT22;56470;47.350;8.718;2022-10-17T11:37:44;21.27;60.23
69324;DHT22;56470;47.350;8.718;2022-10-17T11:40:17;21.25;60.41
69324;DHT22;56470;47.350;8.718;2022-10-17T11:42:52;21.27;60.53
69324;DHT22;56470;47.350;8.718;2022-10-17T11:45:21;21.22;60.61
69324;DHT22;56470;47.350;8.718;2022-10-17T11:47:51;21.22;60.81
69324;DHT22;56470;47.350;8.718;2022-10-17T11:50:23;21.16;61.17
69324;DHT22;56470;47.350;8.718;2022-10-17T11:52:54;21.16;61.35
69324;DHT22;56470;47.350;8.718;2022-10-17T11:55:24;21.15;61.34
69324;DHT22;56470;47.350;8.718;2022-10-17T11:58:16;21.18;61.13
69324;DHT22;56470;47.350;8.718;2022-10-17T12:05:58;21.15;61.32
69324;DHT22;56470;47.350;8.718;2022-10-17T12:13:47;21.10;61.38
69324;DHT22;56470;47.350;8.718;2022-10-17T12:18:49;21.08;61.06
69324;DHT22;56470;47.350;8.718;2022-10-17T12:21:15;21.08;61.17
69324;DHT22;56470;47.350;8.718;2022-10-17T12:23:50;21.06;61.10
69324;DHT22;56470;47.350;8.718;2022-10-17T12:26:24;21.06;61.11
69324;DHT22;56470;47.350;8.718;2022-10-17T12:28:50;21.08;61.30
69324;DHT22;56470;47.350;8.718;2022-10-17T12:46:49;21.08;61.35
69324;DHT22;56470;47.350;8.718;2022-10-17T12:49:38;21.09;61.05
69324;DHT22;56470;47.350;8.718;2022-10-17T13:02:40;21.18;61.81
69324;DHT22;56470;47.350;8.718;2022-10-17T13:05:11;21.20;61.89
69324;DHT22;56470;47.350;8.718;2022-10-17T13:07:40;21.19;61.97
69324;DHT22;56470;47.350;8.718;2022-10-17T13:10:18;21.19;61.81
69324;DHT22;56470;47.350;8.718;2022-10-17T13:12:43;21.20;61.86
69324;DHT22;56470;47.350;8.718;2022-10-17T13:15:15;21.22;61.56
69324;DHT22;56470;47.350;8.718;2022-10-17T13:17:41;21.20;61.68
69324;DHT22;56470;47.350;8.718;2022-10-17T13:20:18;21.20;61.28
69324;DHT22;56470;47.350;8.718;2022-10-17T13:22:44;21.25;61.54
69324;DHT22;56470;47.350;8.718;2022-10-17T13:25:15;21.26;61.37
69324;DHT22;56470;47.350;8.718;2022-10-17T13:27:41;21.26;61.42
69324;DHT22;56470;47.350;8.718;2022-10-17T13:30:26;21.25;61.05
69324;DHT22;56470;47.350;8.718;2022-10-17T13:32:52;21.27;61.54
69324;DHT22;56470;47.350;8.718;2022-10-17T13:35:24;21.29;61.57
69324;DHT22;56470;47.350;8.718;2022-10-17T13:37:51;21.30;61.60
69324;DHT22;56470;47.350;8.718;2022-10-17T13:40:19;21.35;61.53
69324;DHT22;56470;47.350;8.718;2022-10-17T13:42:46;21.33;61.45
69324;DHT22;56470;47.350;8.718;2022-10-17T13:45:20;21.36;61.23
69324;DHT22;56470;47.350;8.718;2022-10-17T13:47:46;21.33;61.32
69324;DHT22;56470;47.350;8.718;2022-10-17T13:50:36;21.32;60.68
69324;DHT22;56470;47.350;8.718;2022-10-17T13:55:37;21.35;61.23
69324;DHT22;56470;47.350;8.718;2022-10-17T13:58:15;21.35;60.52
69324;DHT22;56470;47.350;8.718;2022-10-17T14:00:41;21.37;60.88
69324;DHT22;56470;47.350;8.718;2022-10-17T14:03:07;21.37;60.67
69324;DHT22;56470;47.350;8.718;2022-10-17T14:05:33;21.39;60.64
69324;DHT22;56470;47.350;8.718;2022-10-17T14:08:02;21.39;60.49
69324;DHT22;56470;47.350;8.718;2022-10-17T14:10:36;21.37;60.23
69324;DHT22;56470;47.350;8.718;2022-10-17T14:13:05;21.37;60.52
69324;DHT22;56470;47.350;8.718;2022-10-17T14:15:33;21.39;60.60
69324;DHT22;56470;47.350;8.718;2022-10-17T14:18:05;21.42;60.28
69324;DHT22;56470;47.350;8.718;2022-10-17T14:20:32;21.40;60.45
69324;DHT22;56470;47.350;8.718;2022-10-17T14:22:59;21.40;60.28
69324;DHT22;56470;47.350;8.718;2022-10-17T14:27:54;21.43;60.10
69324;DHT22;56470;47.350;8.718;2022-10-17T14:32:54;21.46;60.14
69324;DHT22;56470;47.350;8.718;2022-10-17T14:35:20;21.43;60.10
69324;DHT22;56470;47.350;8.718;2022-10-17T14:37:47;21.43;60.16
69324;DHT22;56470;47.350;8.718;2022-10-17T14:40:19;21.42;60.23
69324;DHT22;56470;47.350;8.718;2022-10-17T14:42:46;21.43;60.32
69324;DHT22;56470;47.350;8.718;2022-10-17T14:45:24;21.40;60.29
69324;DHT22;56470;47.350;8.718;2022-10-17T14:47:51;21.44;60.26
69324;DHT22;56470;47.350;8.718;2022-10-17T14:50:26;21.42;59.84
69324;DHT22;56470;47.350;8.718;2022-10-17T14:55:28;21.46;60.13
69324;DHT22;56470;47.350;8.718;2022-10-17T14:57:54;21.49;60.13
69324;DHT22;56470;47.350;8.718;2022-10-17T15:00:21;21.54;60.09
69324;DHT22;56470;47.350;8.718;2022-10-17T15:02:48;21.55;60.12
69324;DHT22;56470;47.350;8.718;2022-10-17T15:05:14;21.57;60.15
69324;DHT22;56470;47.350;8.718;2022-10-17T15:07:40;21.60;60.11
69324;DHT22;56470;47.350;8.718;2022-10-17T15:10:19;21.57;60.27
69324;DHT22;56470;47.350;8.718;2022-10-17T15:12:47;21.60;60.59
69324;DHT22;56470;47.350;8.718;2022-10-17T15:15:12;21.64;60.56
69324;DHT22;56470;47.350;8.718;2022-10-17T15:17:38;21.65;60.51
69324;DHT22;56470;47.350;8.718;2022-10-17T15:20:11;21.61;60.59
69324;DHT22;56470;47.350;8.718;2022-10-17T15:22:38;21.61;60.84
69324;DHT22;56470;47.350;8.718;2022-10-17T15:25:03;21.63;60.75
69324;DHT22;56470;47.350;8.718;2022-10-17T15:27:29;21.67;60.81
69324;DHT22;56470;47.350;8.718;2022-10-17T15:29:56;21.64;60.96
69324;DHT22;56470;47.350;8.718;2022-10-17T15:32:22;21.64;61.10
69324;DHT22;56470;47.350;8.718;2022-10-17T15:34:47;21.63;61.27
69324;DHT22;56470;47.350;8.718;2022-10-17T15:37:23;21.63;61.34
69324;DHT22;56470;47.350;8.718;2022-10-17T15:39:50;21.58;61.58
69324;DHT22;56470;47.350;8.718;2022-10-17T15:42:19;21.57;61.75
69324;DHT22;56470;47.350;8.718;2022-10-17T15:44:44;21.53;61.95
69324;DHT22;56470;47.350;8.718;2022-10-17T15:47:27;21.49;62.37
69324;DHT22;56470;47.350;8.718;2022-10-17T15:49:53;21.54;62.22
69324;DHT22;56470;47.350;8.718;2022-10-17T15:52:19;21.51;62.33
69324;DHT22;56470;47.350;8.718;2022-10-17T15:54:45;21.54;62.46
69324;DHT22;56470;47.350;8.718;2022-10-17T15:57:32;21.50;63.03
69324;DHT22;56470;47.350;8.718;2022-10-17T15:59:59;21.53;62.76
69324;DHT22;56470;47.350;8.718;2022-10-17T16:02:24;21.46;62.96
69324;DHT22;56470;47.350;8.718;2022-10-17T16:04:50;21.49;63.06
69324;DHT22;56470;47.350;8.718;2022-10-17T16:07:17;21.50;63.18
69324;DHT22;56470;47.350;8.718;2022-10-17T16:09:42;21.51;63.36
69324;DHT22;56470;47.350;8.718;2022-10-17T16:12:14;21.54;63.65
69324;DHT22;56470;47.350;8.718;2022-10-17T16:14:40;21.54;64.02
69324;DHT22;56470;47.350;8.718;2022-10-17T16:17:12;21.46;64.59
69324;DHT22;56470;47.350;8.718;2022-10-17T16:19:37;21.50;64.86
69324;DHT22;56470;47.350;8.718;2022-10-17T16:22:02;21.44;65.09
69324;DHT22;56470;47.350;8.718;2022-10-17T16:24:30;21.42;65.37
69324;DHT22;56470;47.350;8.718;2022-10-17T16:26:55;21.40;65.63
69324;DHT22;56470;47.350;8.718;2022-10-17T16:29:20;21.32;65.81
69324;DHT22;56470;47.350;8.718;2022-10-17T16:31:46;21.27;65.96
69324;DHT22;56470;47.350;8.718;2022-10-17T16:34:12;21.25;66.17
69324;DHT22;56470;47.350;8.718;2022-10-17T16:36:38;21.19;66.39
69324;DHT22;56470;47.350;8.718;2022-10-17T16:39:05;21.12;66.74
69324;DHT22;56470;47.350;8.718;2022-10-17T16:41:33;21.06;67.02
69324;DHT22;56470;47.350;8.718;2022-10-17T16:44:01;21.02;67.21
69324;DHT22;56470;47.350;8.718;2022-10-17T16:46:28;20.96;67.38
69324;DHT22;56470;47.350;8.718;2022-10-17T16:48:55;20.91;67.50
69324;DHT22;56470;47.350;8.718;2022-10-17T16:51:20;20.82;67.75
69324;DHT22;56470;47.350;8.718;2022-10-17T16:53:47;20.80;67.99
69324;DHT22;56470;47.350;8.718;2022-10-17T16:56:16;20.71;68.26
69324;DHT22;56470;47.350;8.718;2022-10-17T16:58:42;20.67;68.52
69324;DHT22;56470;47.350;8.718;2022-10-17T17:01:10;20.65;68.64
69324;DHT22;56470;47.350;8.718;2022-10-17T17:03:38;20.63;68.78
69324;DHT22;56470;47.350;8.718;2022-10-17T17:06:08;20.58;69.11
69324;DHT22;56470;47.350;8.718;2022-10-17T17:08:35;20.51;69.12
69324;DHT22;56470;47.350;8.718;2022-10-17T17:11:10;20.41;69.38
69324;DHT22;56470;47.350;8.718;2022-10-17T17:13:36;20.34;69.59
69324;DHT22;56470;47.350;8.718;2022-10-17T17:16:12;20.29;70.02
69324;DHT22;56470;47.350;8.718;2022-10-17T17:18:37;20.16;70.00
69324;DHT22;56470;47.350;8.718;2022-10-17T17:21:12;20.09;70.56
69324;DHT22;56470;47.350;8.718;2022-10-17T17:23:39;20.09;70.15
69324;DHT22;56470;47.350;8.718;2022-10-17T17:26:09;20.09;70.12
69324;DHT22;56470;47.350;8.718;2022-10-17T17:28:36;20.04;70.25
69324;DHT22;56470;47.350;8.718;2022-10-17T17:31:06;19.98;70.37